sensor_id;sensor_type;location;lat;lon;timestamp;pressure;altitude;pressure_sealevel;temperature;humidity
25638;BME280;13496;51.040;13.680;2023-02-14T00:02:38;101870.50;;;14.07;50.09
25638;BME280;13496;51.040;13.680;2023-02-14T00:07:39;101867.06;;;14.06;50.36
25638;BME280;13496;51.040;13.680;2023-02-14T00:12:42;101858.41;;;14.06;50.36
25638;BME280;13496;51.040;13.680;2023-02-14T00:17:44;101856.72;;;14.04;50.78
25638;BME280;13496;51.040;13.680;2023-02-14T00:22:45;101859.22;;;14.06;50.38
25638;BME280;13496;51.040;13.680;2023-02-14T00:27:47;101861.94;;;14.04;50.47
25638;BME280;13496;51.040;13.680;2023-02-14T00:32:49;101860.28;;;14.03;50.71
25638;BME280;13496;51.040;13.680;2023-02-14T00:37:51;101858.63;;;14.02;50.45
25638;BME280;13496;51.040;13.680;2023-02-14T00:42:54;101856.91;;;14.01;50.78
25638;BME280;13496;51.040;13.680;2023-02-14T00:47:57;101858.63;;;14.02;50.80
25638;BME280;13496;51.040;13.680;2023-02-14T00:52:59;101858.63;;;14.02;50.20
25638;BME280;13496;51.040;13.680;2023-02-14T00:58:00;101848.16;;;14.02;50.60
25638;BME280;13496;51.040;13.680;2023-02-14T01:03:02;101845.56;;;14.02;50.35
25638;BME280;13496;51.040;13.680;2023-02-14T01:08:04;101840.56;;;13.99;50.29
25638;BME280;13496;51.040;13.680;2023-02-14T01:13:05;101849.22;;;14.00;50.53
25638;BME280;13496;51.040;13.680;2023-02-14T01:18:09;101849.22;;;14.00;50.29
25638;BME280;13496;51.040;13.680;2023-02-14T01:23:10;101837.09;;;13.99;50.28
25638;BME280;13496;51.040;13.680;2023-02-14T01:28:12;101832.72;;;13.99;50.87
25638;BME280;13496;51.040;13.680;2023-02-14T01:33:14;101830.22;;;13.98;50.66
25638;BME280;13496;51.040;13.680;2023-02-14T01:38:16;101829.16;;;14.00;50.41
25638;BME280;13496;51.040;13.680;2023-02-14T01:43:18;101826.75;;;13.97;50.44
25638;BME280;13496;51.040;13.680;2023-02-14T01:48:20;101818.09;;;13.97;50.73
25638;BME280;13496;51.040;13.680;2023-02-14T01:53:25;101805.16;;;13.95;50.24
25638;BME280;13496;51.040;13.680;2023-02-14T01:58:32;101817.28;;;13.96;50.38
25638;BME280;13496;51.040;13.680;2023-02-14T02:03:42;101825.22;;;13.95;50.40
25638;BME280;13496;51.040;13.680;2023-02-14T02:08:52;101820.81;;;13.95;50.47
25638;BME280;13496;51.040;13.680;2023-02-14T02:13:58;101817.38;;;13.95;50.32
25638;BME280;13496;51.040;13.680;2023-02-14T02:19:34;101819.16;;;13.94;50.77
25638;BME280;13496;51.040;13.680;2023-02-14T02:24:57;101810.38;;;13.95;50.36
25638;BME280;13496;51.040;13.680;2023-02-14T02:35:47;101803.50;;;13.94;50.77
25638;BME280;13496;51.040;13.680;2023-02-14T02:41:03;101808.81;;;13.93;50.55
25638;BME280;13496;51.040;13.680;2023-02-14T02:51:44;101807.03;;;13.93;50.84
25638;BME280;13496;51.040;13.680;2023-02-14T02:57:13;101794.00;;;13.93;50.38
25638;BME280;13496;51.040;13.680;2023-02-14T03:02:22;101798.38;;;13.93;50.38
25638;BME280;13496;51.040;13.680;2023-02-14T03:07:34;101788.06;;;13.91;50.53
25638;BME280;13496;51.040;13.680;2023-02-14T03:13:11;101791.38;;;13.93;50.64
25638;BME280;13496;51.040;13.680;2023-02-14T03:23:44;101799.34;;;13.92;50.51
25638;BME280;13496;51.040;13.680;2023-02-14T03:29:03;101796.59;;;13.93;50.50
25638;BME280;13496;51.040;13.680;2023-02-14T03:34:19;101791.50;;;13.92;50.72
25638;BME280;13496;51.040;13.680;2023-02-14T03:39:28;101796.81;;;13.90;50.87
25638;BME280;13496;51.040;13.680;2023-02-14T03:44:33;101787.22;;;13.91;50.58
25638;BME280;13496;51.040;13.680;2023-02-14T03:49:41;101794.00;;;13.93;50.69
25638;BME280;13496;51.040;13.680;2023-02-14T03:54:45;101784.63;;;13.91;50.87
25638;BME280;13496;51.040;13.680;2023-02-14T03:59:49;101789.72;;;13.92;50.93
25638;BME280;13496;51.040;13.680;2023-02-14T04:04:52;101788.78;;;13.93;50.89
25638;BME280;13496;51.040;13.680;2023-02-14T04:09:54;101798.50;;;13.91;50.80
25638;BME280;13496;51.040;13.680;2023-02-14T04:14:56;101799.41;;;13.90;50.61
25638;BME280;13496;51.040;13.680;2023-02-14T04:19:57;101795.91;;;13.91;50.65
25638;BME280;13496;51.040;13.680;2023-02-14T04:24:59;101797.56;;;13.92;50.47
25638;BME280;13496;51.040;13.680;2023-02-14T04:30:01;101791.59;;;13.90;50.91
25638;BME280;13496;51.040;13.680;2023-02-14T04:35:02;101781.91;;;13.92;50.93
25638;BME280;13496;51.040;13.680;2023-02-14T04:40:05;101777.63;;;13.91;50.79
25638;BME280;13496;51.040;13.680;2023-02-14T04:45:07;101779.41;;;13.91;51.00
25638;BME280;13496;51.040;13.680;2023-02-14T04:50:11;101773.25;;;13.92;50.77
25638;BME280;13496;51.040;13.680;2023-02-14T04:55:12;101775.94;;;13.90;50.93
25638;BME280;13496;51.040;13.680;2023-02-14T05:00:14;101761.16;;;13.91;50.52
25638;BME280;13496;51.040;13.680;2023-02-14T05:05:16;101768.84;;;13.92;50.51
25638;BME280;13496;51.040;13.680;2023-02-14T05:10:18;101769.78;;;13.91;50.34
25638;BME280;13496;51.040;13.680;2023-02-14T05:15:20;101766.34;;;13.91;50.62
25638;BME280;13496;51.040;13.680;2023-02-14T05:20:21;101762.81;;;13.92;51.02
25638;BME280;13496;51.040;13.680;2023-02-14T05:25:23;101763.63;;;13.92;50.46
25638;BME280;13496;51.040;13.680;2023-02-14T05:30:24;101760.28;;;13.90;50.52
25638;BME280;13496;51.040;13.680;2023-02-14T05:35:28;101766.25;;;13.92;50.46
25638;BME280;13496;51.040;13.680;2023-02-14T05:40:30;101754.16;;;13.91;50.52
25638;BME280;13496;51.040;13.680;2023-02-14T05:45:31;101761.16;;;13.91;50.96
25638;BME280;13496;51.040;13.680;2023-02-14T05:50:33;101751.53;;;13.91;50.46
25638;BME280;13496;51.040;13.680;2023-02-14T05:55:35;101753.19;;;13.92;50.30
25638;BME280;13496;51.040;13.680;2023-02-14T06:00:36;101758.63;;;13.89;50.77
25638;BME280;13496;51.040;13.680;2023-02-14T06:05:39;101762.06;;;13.90;50.79
25638;BME280;13496;51.040;13.680;2023-02-14T06:10:40;101763.75;;;13.91;50.84
25638;BME280;13496;51.040;13.680;2023-02-14T06:15:42;101757.59;;;13.92;51.07
25638;BME280;13496;51.040;13.680;2023-02-14T06:20:44;101758.53;;;13.91;50.74
25638;BME280;13496;51.040;13.680;2023-02-14T06:25:45;101768.97;;;13.91;50.52
25638;BME280;13496;51.040;13.680;2023-02-14T06:30:47;101763.75;;;13.91;50.69
25638;BME280;13496;51.040;13.680;2023-02-14T06:35:49;101762.06;;;13.90;51.00
25638;BME280;13496;51.040;13.680;2023-02-14T06:40:50;101764.47;;;13.93;50.55
25638;BME280;13496;51.040;13.680;2023-02-14T06:45:52;101772.28;;;13.93;50.71
25638;BME280;13496;51.040;13.680;2023-02-14T06:50:53;101780.13;;;13.93;50.51
25638;BME280;13496;51.040;13.680;2023-02-14T06:55:55;101775.72;;;13.93;50.62
25638;BME280;13496;51.040;13.680;2023-02-14T07:00:57;101775.72;;;13.93;50.91
25638;BME280;13496;51.040;13.680;2023-02-14T07:05:59;101773.84;;;13.95;51.00
25638;BME280;13496;51.040;13.680;2023-02-14T07:11:01;101774.81;;;13.94;50.90
25638;BME280;13496;51.040;13.680;2023-02-14T07:16:03;101770.28;;;13.96;50.63
25638;BME280;13496;51.040;13.680;2023-02-14T07:21:05;101765.19;;;13.95;50.75
25638;BME280;13496;51.040;13.680;2023-02-14T07:26:06;101775.53;;;13.96;50.89
25638;BME280;13496;51.040;13.680;2023-02-14T07:31:08;101758.91;;;13.97;50.26
25638;BME280;13496;51.040;13.680;2023-02-14T07:36:10;101770.22;;;13.98;50.76
25638;BME280;13496;51.040;13.680;2023-02-14T07:41:11;101762.25;;;13.99;50.41
25638;BME280;13496;51.040;13.680;2023-02-14T07:46:13;101764.03;;;13.99;50.25
25638;BME280;13496;51.040;13.680;2023-02-14T07:51:15;101755.25;;;14.00;50.86
25638;BME280;13496;51.040;13.680;2023-02-14T07:56:16;101764.66;;;14.02;50.33
25638;BME280;13496;51.040;13.680;2023-02-14T08:01:18;101755.13;;;14.01;50.48
25638;BME280;13496;51.040;13.680;2023-02-14T08:06:20;101762.75;;;14.04;50.29
25638;BME280;13496;51.040;13.680;2023-02-14T08:11:22;101764.53;;;14.04;50.74
25638;BME280;13496;51.040;13.680;2023-02-14T08:16:42;101760.16;;;14.04;50.58
25638;BME280;13496;51.040;13.680;2023-02-14T08:21:43;101761.84;;;14.06;50.90
25638;BME280;13496;51.040;13.680;2023-02-14T08:26:45;101769.41;;;14.09;50.24
25638;BME280;13496;51.040;13.680;2023-02-14T08:31:47;101766.94;;;14.07;50.27
25638;BME280;13496;51.040;13.680;2023-02-14T08:36:49;101773.72;;;14.10;50.85
25638;BME280;13496;51.040;13.680;2023-02-14T08:41:52;101772.03;;;14.09;50.37
25638;BME280;13496;51.040;13.680;2023-02-14T08:46:54;101765.97;;;14.08;50.24
25638;BME280;13496;51.040;13.680;2023-02-14T08:51:55;101770.28;;;14.09;50.53
25638;BME280;13496;51.040;13.680;2023-02-14T08:56:57;101771.19;;;14.08;50.40
25638;BME280;13496;51.040;13.680;2023-02-14T09:01:58;101771.13;;;14.10;50.79
25638;BME280;13496;51.040;13.680;2023-02-14T09:07:00;101767.75;;;14.08;50.50
25638;BME280;13496;51.040;13.680;2023-02-14T09:12:06;101772.03;;;14.09;50.69
25638;BME280;13496;51.040;13.680;2023-02-14T09:17:12;101775.50;;;14.09;50.98
25638;BME280;13496;51.040;13.680;2023-02-14T09:22:14;101778.19;;;14.08;50.97
25638;BME280;13496;51.040;13.680;2023-02-14T09:27:15;101779.16;;;14.07;50.57
25638;BME280;13496;51.040;13.680;2023-02-14T09:32:18;101776.34;;;14.10;50.77
25638;BME280;13496;51.040;13.680;2023-02-14T09:37:19;101772.97;;;14.08;50.81
25638;BME280;13496;51.040;13.680;2023-02-14T09:48:02;101785.69;;;14.12;50.51
25638;BME280;13496;51.040;13.680;2023-02-14T09:53:11;101786.78;;;14.10;51.04
25638;BME280;13496;51.040;13.680;2023-02-14T09:58:23;101784.88;;;14.12;50.64
25638;BME280;13496;51.040;13.680;2023-02-14T10:03:46;101779.66;;;14.12;50.52
25638;BME280;13496;51.040;13.680;2023-02-14T10:14:13;101781.94;;;14.16;50.58
25638;BME280;13496;51.040;13.680;2023-02-14T10:19:21;101784.44;;;14.18;50.83
25638;BME280;13496;51.040;13.680;2023-02-14T10:24:46;101778.19;;;14.20;50.47
25638;BME280;13496;51.040;13.680;2023-02-14T10:29:49;101773.06;;;14.19;50.52
25638;BME280;13496;51.040;13.680;2023-02-14T10:34:54;101780.56;;;14.23;50.30
25638;BME280;13496;51.040;13.680;2023-02-14T10:45:19;101777.94;;;14.23;50.26
25638;BME280;13496;51.040;13.680;2023-02-14T10:50:34;101774.41;;;14.24;50.66
25638;BME280;13496;51.040;13.680;2023-02-14T10:55:56;101769.06;;;14.26;50.19
25638;BME280;13496;51.040;13.680;2023-02-14T11:01:13;101775.94;;;14.27;50.63
25638;BME280;13496;51.040;13.680;2023-02-14T11:06:15;101767.19;;;14.28;50.30
25638;BME280;13496;51.040;13.680;2023-02-14T11:11:24;101766.13;;;14.31;50.18
25638;BME280;13496;51.040;13.680;2023-02-14T11:16:32;101764.13;;;14.34;50.49
25638;BME280;13496;51.040;13.680;2023-02-14T11:21:38;101755.38;;;14.35;50.06
25638;BME280;13496;51.040;13.680;2023-02-14T11:26:44;101752.63;;;14.37;50.17
25638;BME280;13496;51.040;13.680;2023-02-14T11:31:47;101748.00;;;14.40;50.03
25638;BME280;13496;51.040;13.680;2023-02-14T11:36:48;101746.09;;;14.42;50.48
25638;BME280;13496;51.040;13.680;2023-02-14T11:41:53;101740.06;;;14.42;50.28
25638;BME280;13496;51.040;13.680;2023-02-14T11:46:57;101740.78;;;14.44;50.44
25638;BME280;13496;51.040;13.680;2023-02-14T11:52:16;101734.75;;;14.43;50.06
25638;BME280;13496;51.040;13.680;2023-02-14T11:57:23;101735.44;;;14.45;49.99
25638;BME280;13496;51.040;13.680;2023-02-14T12:02:44;101722.28;;;14.47;49.89
25638;BME280;13496;51.040;13.680;2023-02-14T12:07:49;101720.31;;;14.50;50.00
25638;BME280;13496;51.040;13.680;2023-02-14T12:23:40;101704.09;;;14.58;49.94
25638;BME280;13496;51.040;13.680;2023-02-14T12:28:49;101696.94;;;14.60;50.05
25638;BME280;13496;51.040;13.680;2023-02-14T12:33:53;101693.41;;;14.61;49.85
25638;BME280;13496;51.040;13.680;2023-02-14T12:39:04;101681.41;;;14.59;49.99
25638;BME280;13496;51.040;13.680;2023-02-14T12:44:23;101678.44;;;14.63;50.06
25638;BME280;13496;51.040;13.680;2023-02-14T12:49:41;101662.91;;;14.62;50.13
25638;BME280;13496;51.040;13.680;2023-02-14T12:55:00;101665.97;;;14.67;49.91
25638;BME280;13496;51.040;13.680;2023-02-14T13:06:00;101646.88;;;14.66;49.86
25638;BME280;13496;51.040;13.680;2023-02-14T13:11:29;101642.38;;;14.68;49.95
25638;BME280;13496;51.040;13.680;2023-02-14T13:22:10;101643.06;;;14.70;50.10
25638;BME280;13496;51.040;13.680;2023-02-14T13:27:30;101637.50;;;14.75;49.92
25638;BME280;13496;51.040;13.680;2023-02-14T13:32:38;101633.44;;;14.71;49.81
25638;BME280;13496;51.040;13.680;2023-02-14T13:37:47;101635.00;;;14.73;49.70
25638;BME280;13496;51.040;13.680;2023-02-14T13:42:55;101626.34;;;14.73;49.95
25638;BME280;13496;51.040;13.680;2023-02-14T13:48:17;101611.59;;;14.72;50.22
25638;BME280;13496;51.040;13.680;2023-02-14T13:53:42;101617.69;;;14.72;50.36
25638;BME280;13496;51.040;13.680;2023-02-14T13:58:52;101614.09;;;14.73;50.32
25638;BME280;13496;51.040;13.680;2023-02-14T14:03:59;101617.78;;;14.71;50.06
25638;BME280;13496;51.040;13.680;2023-02-14T14:09:03;101620.16;;;14.74;50.26
25638;BME280;13496;51.040;13.680;2023-02-14T14:14:26;101607.31;;;14.71;49.83
25638;BME280;13496;51.040;13.680;2023-02-14T14:24:33;101602.81;;;14.73;50.23
25638;BME280;13496;51.040;13.680;2023-02-14T14:29:45;101587.03;;;14.74;50.21
25638;BME280;13496;51.040;13.680;2023-02-14T14:40:23;101589.53;;;14.76;49.94
25638;BME280;13496;51.040;13.680;2023-02-14T14:45:29;101584.41;;;14.74;49.61
25638;BME280;13496;51.040;13.680;2023-02-14T14:50:34;101574.78;;;14.75;50.17
25638;BME280;13496;51.040;13.680;2023-02-14T14:55:37;101567.19;;;14.72;50.00
25638;BME280;13496;51.040;13.680;2023-02-14T15:00:49;101556.50;;;14.75;50.22
25638;BME280;13496;51.040;13.680;2023-02-14T15:06:15;101548.78;;;14.73;50.41
25638;BME280;13496;51.040;13.680;2023-02-14T15:11:22;101539.41;;;14.71;50.02
25638;BME280;13496;51.040;13.680;2023-02-14T15:16:49;101542.59;;;14.74;50.33
25638;BME280;13496;51.040;13.680;2023-02-14T15:21:52;101535.72;;;14.73;49.86
25638;BME280;13496;51.040;13.680;2023-02-14T15:26:55;101540.94;;;14.73;49.89
25638;BME280;13496;51.040;13.680;2023-02-14T15:31:58;101528.84;;;14.72;50.07
25638;BME280;13496;51.040;13.680;2023-02-14T15:37:00;101527.16;;;14.71;50.14
25638;BME280;13496;51.040;13.680;2023-02-14T15:47:28;101511.75;;;14.68;50.22
25638;BME280;13496;51.040;13.680;2023-02-14T15:52:29;101518.63;;;14.69;50.59
25638;BME280;13496;51.040;13.680;2023-02-14T15:57:32;101523.03;;;14.69;50.36
25638;BME280;13496;51.040;13.680;2023-02-14T16:02:36;101516.13;;;14.68;50.25
25638;BME280;13496;51.040;13.680;2023-02-14T16:07:39;101521.34;;;14.68;50.68
25638;BME280;13496;51.040;13.680;2023-02-14T16:12:40;101524.69;;;14.70;49.89
25638;BME280;13496;51.040;13.680;2023-02-14T16:17:42;101522.44;;;14.65;50.15
25638;BME280;13496;51.040;13.680;2023-02-14T16:22:44;101519.69;;;14.67;50.07
25638;BME280;13496;51.040;13.680;2023-02-14T16:27:46;101521.59;;;14.65;50.56
25638;BME280;13496;51.040;13.680;2023-02-14T16:32:49;101513.78;;;14.65;50.46
25638;BME280;13496;51.040;13.680;2023-02-14T16:37:52;101516.38;;;14.65;50.06
25638;BME280;13496;51.040;13.680;2023-02-14T16:42:54;101515.53;;;14.64;50.41
25638;BME280;13496;51.040;13.680;2023-02-14T16:47:56;101526.84;;;14.65;50.27
25638;BME280;13496;51.040;13.680;2023-02-14T16:52:57;101518.28;;;14.63;50.62
25638;BME280;13496;51.040;13.680;2023-02-14T16:58:00;101518.28;;;14.63;50.35
25638;BME280;13496;51.040;13.680;2023-02-14T17:03:02;101518.13;;;14.64;50.21
25638;BME280;13496;51.040;13.680;2023-02-14T17:08:08;101513.78;;;14.65;50.03
25638;BME280;13496;51.040;13.680;2023-02-14T17:13:11;101510.31;;;14.64;50.06
25638;BME280;13496;51.040;13.680;2023-02-14T17:18:14;101513.03;;;14.63;50.07
25638;BME280;13496;51.040;13.680;2023-02-14T17:23:18;101506.16;;;14.62;50.10
25638;BME280;13496;51.040;13.680;2023-02-14T17:28:21;101497.59;;;14.60;50.43
25638;BME280;13496;51.040;13.680;2023-02-14T17:33:25;101494.16;;;14.59;50.25
25638;BME280;13496;51.040;13.680;2023-02-14T17:38:27;101491.41;;;14.61;50.17
25638;BME280;13496;51.040;13.680;2023-02-14T17:43:29;101497.59;;;14.60;50.49
25638;BME280;13496;51.040;13.680;2023-02-14T17:48:31;101490.72;;;14.59;50.19
25638;BME280;13496;51.040;13.680;2023-02-14T17:53:33;101483.84;;;14.58;50.60
25638;BME280;13496;51.040;13.680;2023-02-14T17:58:35;101480.28;;;14.59;50.18
25638;BME280;13496;51.040;13.680;2023-02-14T18:03:37;101476.84;;;14.58;50.38
25638;BME280;13496;51.040;13.680;2023-02-14T18:08:44;101473.50;;;14.56;50.32
25638;BME280;13496;51.040;13.680;2023-02-14T18:13:46;101469.00;;;14.58;50.36
25638;BME280;13496;51.040;13.680;2023-02-14T18:18:48;101464.00;;;14.55;50.35
25638;BME280;13496;51.040;13.680;2023-02-14T18:23:50;101471.84;;;14.55;50.63
25638;BME280;13496;51.040;13.680;2023-02-14T18:28:52;101465.91;;;14.53;50.37
25638;BME280;13496;51.040;13.680;2023-02-14T18:33:53;101473.63;;;14.55;50.78
25638;BME280;13496;51.040;13.680;2023-02-14T18:38:55;101464.00;;;14.55;50.26
25638;BME280;13496;51.040;13.680;2023-02-14T18:43:57;101456.53;;;14.50;50.32
25638;BME280;13496;51.040;13.680;2023-02-14T18:48:58;101468.63;;;14.51;50.50
25638;BME280;13496;51.040;13.680;2023-02-14T18:54:01;101452.97;;;14.51;50.26
25638;BME280;13496;51.040;13.680;2023-02-14T18:59:06;101442.66;;;14.50;50.39
25638;BME280;13496;51.040;13.680;2023-02-14T19:04:09;101443.56;;;14.49;50.17
25638;BME280;13496;51.040;13.680;2023-02-14T19:09:14;101434.91;;;14.48;50.64
25638;BME280;13496;51.040;13.680;2023-02-14T19:14:17;101425.50;;;14.46;50.65
25638;BME280;13496;51.040;13.680;2023-02-14T19:19:19;101432.28;;;14.48;50.57
25638;BME280;13496;51.040;13.680;2023-02-14T19:24:20;101431.34;;;14.49;50.21
25638;BME280;13496;51.040;13.680;2023-02-14T19:29:24;101430.63;;;14.47;50.58
25638;BME280;13496;51.040;13.680;2023-02-14T19:34:28;101415.06;;;14.46;50.71
25638;BME280;13496;51.040;13.680;2023-02-14T19:39:30;101422.06;;;14.45;50.82
25638;BME280;13496;51.040;13.680;2023-02-14T19:44:32;101410.94;;;14.43;50.44
25638;BME280;13496;51.040;13.680;2023-02-14T19:49:33;101415.19;;;14.44;50.82
25638;BME280;13496;51.040;13.680;2023-02-14T19:54:39;101422.06;;;14.45;50.46
25638;BME280;13496;51.040;13.680;2023-02-14T19:59:41;101414.59;;;14.41;50.52
25638;BME280;13496;51.040;13.680;2023-02-14T20:04:42;101421.47;;;14.42;50.59
25638;BME280;13496;51.040;13.680;2023-02-14T20:09:44;101413.78;;;14.40;50.62
25638;BME280;13496;51.040;13.680;2023-02-14T20:14:46;101411.28;;;14.39;50.70
25638;BME280;13496;51.040;13.680;2023-02-14T20:19:47;101405.22;;;14.38;50.32
25638;BME280;13496;51.040;13.680;2023-02-14T20:24:49;101401.69;;;14.39;50.55
25638;BME280;13496;51.040;13.680;2023-02-14T20:29:51;101396.56;;;14.38;50.81
25638;BME280;13496;51.040;13.680;2023-02-14T20:34:52;101395.63;;;14.39;50.57
25638;BME280;13496;51.040;13.680;2023-02-14T20:39:54;101400.00;;;14.38;50.76
25638;BME280;13496;51.040;13.680;2023-02-14T20:44:56;101392.16;;;14.38;50.74
25638;BME280;13496;51.040;13.680;2023-02-14T20:49:57;101387.91;;;14.37;50.54
25638;BME280;13496;51.040;13.680;2023-02-14T20:54:59;101382.69;;;14.37;50.51
25638;BME280;13496;51.040;13.680;2023-02-14T21:00:01;101387.91;;;14.37;50.62
25638;BME280;13496;51.040;13.680;2023-02-14T21:05:02;101380.19;;;14.36;50.40
25638;BME280;13496;51.040;13.680;2023-02-14T21:10:05;101379.38;;;14.35;50.69
25638;BME280;13496;51.040;13.680;2023-02-14T21:15:07;101382.09;;;14.34;50.69
25638;BME280;13496;51.040;13.680;2023-02-14T21:20:10;101376.03;;;14.33;50.65
25638;BME280;13496;51.040;13.680;2023-02-14T21:25:12;101385.66;;;14.33;50.68
25638;BME280;13496;51.040;13.680;2023-02-14T21:30:14;101379.84;;;14.29;50.73
25638;BME280;13496;51.040;13.680;2023-02-14T21:35:15;101374.38;;;14.32;50.71
25638;BME280;13496;51.040;13.680;2023-02-14T21:40:17;101363.94;;;14.32;50.70
25638;BME280;13496;51.040;13.680;2023-02-14T21:45:19;101358.81;;;14.31;50.99
25638;BME280;13496;51.040;13.680;2023-02-14T21:50:39;101355.38;;;14.30;50.29
25638;BME280;13496;51.040;13.680;2023-02-14T21:55:41;101346.13;;;14.26;50.54
25638;BME280;13496;51.040;13.680;2023-02-14T22:00:44;101345.19;;;14.27;50.46
25638;BME280;13496;51.040;13.680;2023-02-14T22:05:46;101333.91;;;14.26;50.57
25638;BME280;13496;51.040;13.680;2023-02-14T22:10:48;101334.03;;;14.25;50.85
25638;BME280;13496;51.040;13.680;2023-02-14T22:15:50;101332.25;;;14.25;50.61
25638;BME280;13496;51.040;13.680;2023-02-14T22:20:52;101330.59;;;14.24;50.98
25638;BME280;13496;51.040;13.680;2023-02-14T22:25:53;101332.38;;;14.24;50.49
25638;BME280;13496;51.040;13.680;2023-02-14T22:30:58;101321.94;;;14.24;50.56
25638;BME280;13496;51.040;13.680;2023-02-14T22:36:00;101324.44;;;14.25;50.58
25638;BME280;13496;51.040;13.680;2023-02-14T22:41:10;101321.94;;;14.24;50.54
25638;BME280;13496;51.040;13.680;2023-02-14T22:46:24;101324.56;;;14.24;50.78
25638;BME280;13496;51.040;13.680;2023-02-14T22:51:46;101320.41;;;14.21;50.84
25638;BME280;13496;51.040;13.680;2023-02-14T22:56:49;101317.91;;;14.20;50.94
25638;BME280;13496;51.040;13.680;2023-02-14T23:01:53;101312.44;;;14.23;50.63
25638;BME280;13496;51.040;13.680;2023-02-14T23:06:55;101315.19;;;14.21;50.82
25638;BME280;13496;51.040;13.680;2023-02-14T23:11:57;101309.38;;;14.18;50.73
25638;BME280;13496;51.040;13.680;2023-02-14T23:16:58;101306.75;;;14.18;50.66
25638;BME280;13496;51.040;13.680;2023-02-14T23:22:20;101303.19;;;14.19;50.42
25638;BME280;13496;51.040;13.680;2023-02-14T23:27:24;101305.81;;;14.19;50.85
25638;BME280;13496;51.040;13.680;2023-02-14T23:32:27;101297.28;;;14.17;50.49
25638;BME280;13496;51.040;13.680;2023-02-14T23:37:29;101295.59;;;14.16;50.71
25638;BME280;13496;51.040;13.680;2023-02-14T23:42:30;101287.06;;;14.14;50.49
25638;BME280;13496;51.040;13.680;2023-02-14T23:47:32;101283.66;;;14.13;50.55
25638;BME280;13496;51.040;13.680;2023-02-14T23:52:34;101284.56;;;14.12;50.73
25638;BME280;13496;51.040;13.680;2023-02-14T23:57:36;101287.78;;;14.16;50.63
